Lackland Air Force Base (Kelly Field Annex) Airport
KSKF : now visible

Airfield :











YOU CAN JOIN US ON...

 
LOGIN :

Register | Disclaimer

   EN    FR    IT 

 









Legend :    VFR   Marginal VFR   IFR   Intensive IFR   Very Intensive IFR
Visi :
Ceiling :
>= 8 km
>= 3000ft
5 to 8 km
1000 to 3000 ft
1500m to 5 km
500 to 1000 ft
800 to 1500m
200 to 500 ft
< 800m
< 200 ft
Symbols :   Thunderstorms  Fog  Heavy snow  Heavy precipitations  Wind > 20 kt






- Airport Elevation : 691 ft


KSKF - Lackland Air Force Base (Kelly Field Annex)

CURRENT METAR :
  • 051956Z 17006KT 10SM SCT018 BKN250 21/16 A2996 RMK AO2A SLP143 T02120159

EXPIRED METARs :
  • 051921Z 18007KT 10SM SCT014 BKN250 20/16 A2998 RMK AO2A SLP151
  • 051856Z 18007KT 10SM BKN009 OVC012 19/18 A2999 RMK AO2A SLP154 T01850180
  • 051846Z AUTO 18005KT 10SM BKN011 18/18 A2999 RMK AO2 BKN V SCT CIG 010 RWY34 SLP155
  • 051811Z AUTO 18003KT 10SM OVC008 17/17 A3003 RMK AO2 CIG 006V008 CIG 007 RWY34 SLP168
  • 051756Z 19004KT 10SM OVC006 17/17 A3003 RMK AO2A CIG 004 RWY34 SLP168 T01670167 10167 20124 58002
  • 051746Z 20004KT 10SM OVC005 17/17 A3003 RMK AO2A CIG 004 RWY34 SLP168

TAF TAF KSKF
Valid from the 05 at 18:00 until the 07 at 00:00 UTC


051800Z 0518/0624 19006KT 9999 OVC006 QNH2999INS
BECMG 0518/0519 18007KT 9999 BKN009 OVC250 QNH2998INS
BECMG 0519/0520 17009KT 9999 SCT015 BKN250 QNH2995INS
BECMG 0605/0606 26006KT 9000 BR BKN008 BKN250 QNH3002INS
BECMG 0611/0612 34009KT 9999 NSW SCT250 QNH3008INS
BECMG 0614/0615 35012G18KT 9999 SKC QNH3016INS
BECMG 0623/0624 01007KT 9999 SKC QNH3020INS TX20/0521Z TN14/0612Z



MET'MAP, your aeronautical weather chart ! - Copyright ORBIFLY December 2007 - Disclaimer

ORBIFLY MET'MAP TEAM :

Programming & Development : Alexandra Zaïnal
Concept & original design : Baudouin d'Aumeries
Assistance for programming : Marc-Olivier Méhu
Technical & hardware support : Manuel Goepfert

Contact : metmap@orbifly.com




SOURCES & CREDITS :

   NOAA       Earth
Advisory